• Join FlightAware (Why Join?)
  • Login
  • US Flag 
01:48PM EDT


 

Airport Tracker/Info


-or-


 

Live Flight TrackerFlight Track Log ✈ TRS412 ✈ 28-Apr-2013 ✈ KMDW - KATL

Flight Track Log - Related Links

Times and Time Zones

All times are in EDT time to prevent confusion due to time zone crossing. See the TRS412 flight status page for this flight to view local times or setup timezone preferences in your user account.

Time Position Orientation Groundspeed Altitude Reporting Facility
EDT Latitude Longitude Course Direction KTS MPH feet Rate Location/Type
06:26AM 41.8000 -87.7167 124° Southeast 162 186 2,300  Level Chicago TRACON
06:27AM 41.7667 -87.6500 124° Southeast 218 251 4,300 2,220 Climbing Chicago TRACON
06:28AM 41.6714 -87.7039 203° Southwest 255 293 8,000 2,400 Climbing Chicago Center
06:29AM 41.6017 -87.7533 208° Southwest 277 319 10,400 1,920 Climbing Chicago Center
06:30AM 41.5206 -87.8069 206° Southwest 322 371 11,900 1,860 Climbing Chicago Center
06:31AM 41.4308 -87.8658 206° Southwest 352 405 14,200 2,280 Climbing Chicago Center
06:32AM 41.3278 -87.8861 188° South 374 430 16,500 2,160 Climbing Chicago Center
06:33AM 41.2197 -87.8939 183° South 385 443 18,600 2,220 Climbing Chicago Center
06:34AM 41.1064 -87.8881 178° South 404 465 21,000 2,220 Climbing Chicago Center
06:35AM 40.9914 -87.8853 179° South 413 475 23,100 1,980 Climbing Chicago Center
06:36AM 40.8728 -87.8797 178° South 424 488 25,000 1,800 Climbing Chicago Center
06:37AM 40.7522 -87.8761 179° South 434 499 26,700 1,380 Climbing Chicago Center
06:38AM 40.6264 -87.8708 178° South 449 517 27,900 1,500 Climbing Chicago Center
06:39AM 40.5042 -87.8322 166° South 453 521 29,800 1,740 Climbing Chicago Center
06:40AM 40.3842 -87.7997 168° South 445 512 31,400 1,440 Climbing Chicago Center
06:41AM 40.2675 -87.7683 168° South 447 514 32,700 1,200 Climbing Indianapolis Center
06:42AM 40.1244 -87.7286 168° South 449 517 33,800 1,140 Climbing Indianapolis Center
06:43AM 40.0006 -87.6950 168° South 451 519 35,000 540 Climbing Indianapolis Center
06:44AM 39.8797 -87.6608 168° South 444 511 35,000  Level Indianapolis Center
06:45AM 39.7597 -87.6283 168° South 440 506 35,000  Level Indianapolis Center
06:46AM 39.6364 -87.5944 168° South 449 517 35,000  Level Indianapolis Center
06:47AM 39.5153 -87.5611 168° South 444 511 35,000  Level Indianapolis Center
06:48AM 39.3953 -87.5281 168° South 440 506 35,000  Level Indianapolis Center
06:49AM 39.2758 -87.4964 168° South 437 503 35,000  Level Indianapolis Center
06:50AM 39.1558 -87.4653 169° South 438 504 35,000  Level Indianapolis Center
06:51AM 39.0436 -87.4331 167° South 441 507 35,000  Level Indianapolis Center
06:52AM 38.9233 -87.4019 169° South 439 505 35,000  Level Indianapolis Center
06:53AM 38.8036 -87.3711 169° South 438 504 35,000  Level Indianapolis Center
06:54AM 38.6853 -87.3392 168° South 435 501 35,000  Level Indianapolis Center
06:55AM 38.5675 -87.3072 168° South 434 499 35,000  Level Indianapolis Center
06:56AM 38.4497 -87.2761 168° South 433 498 35,000  Level Indianapolis Center
06:57AM 38.3333 -87.2458 168° South 434 499 35,000  Level Indianapolis Center
06:58AM 38.2178 -87.2158 168° South 433 498 35,000  Level Indianapolis Center
06:59AM 38.0778 -87.1781 168° South 432 497 35,000  Level Indianapolis Center
07:00AM 37.9600 -87.1478 169° South 433 498 35,000  Level Indianapolis Center
07:01AM 37.8408 -87.1167 168° South 435 501 35,000  Level Indianapolis Center
07:02AM 37.7233 -87.0856 168° South 432 497 35,000  Level Indianapolis Center
07:03AM 37.6039 -87.0553 169° South 435 501 35,000  Level Indianapolis Center
07:04AM 37.5081 -87.0317 169° South 444 511 35,000  Level Memphis Center
07:05AM 37.3781 -86.9981 168° South 438 504 35,000  Level Memphis Center
07:06AM 37.2606 -86.9689 169° South 433 498 35,000  Level Memphis Center
07:07AM 37.1494 -86.9400 168° South 422 486 35,000  Level Memphis Center
07:08AM 37.0361 -86.9111 168° South 415 478 35,000  Level Memphis Center
07:09AM 36.9206 -86.8822 169° South 420 483 35,000  Level Memphis Center
07:10AM 36.8094 -86.8533 168° South 420 483 35,000  Level Memphis Center
07:11AM 36.7189 -86.7486 137° Southeast 420 483 35,000  Level Memphis Center
07:12AM 36.7033 -86.5758 96° East 436 502 35,000 -480 Level Memphis Center
07:13AM 36.6944 -86.4211 94° East 471 542 34,100 -960 Descending Memphis Center
07:14AM 36.6886 -86.2453 92° East 496 571 33,100 -600 Descending Memphis Center
07:15AM 36.6439 -86.0925 110° East 477 549 33,000 -60 Descending Memphis Center
07:16AM 36.5433 -86.0178 149° Southeast 403 464 33,000  Level Memphis Center
07:17AM 36.4236 -85.9958 172° South 383 441 33,000 -120 Level Memphis Center
07:18AM 36.3128 -85.9839 175° South 398 458 32,800 -660 Descending Memphis Center
07:19AM 36.2061 -85.9742 176° South 398 458 31,700 -1,080 Descending Memphis Center
07:20AM 36.0972 -85.9594 174° South 393 452 30,700 -1,200 Descending Memphis Center
07:21AM 35.9883 -85.9447 174° South 393 452 29,300 -1,440 Descending Memphis Center
07:24AM 35.7414 -85.9167 175° South 375 432 25,900 -1,320 Descending Atlanta Center
07:25AM 35.6478 -85.9044 174° South 362 417 24,900 -960 Descending Atlanta Center
07:26AM 35.5500 -85.8919 174° South 362 417 24,000 -480 Descending Atlanta Center
07:27AM 35.4478 -85.8819 175° South 362 417 24,000  Level Atlanta Center
07:28AM 35.3583 -85.8697 174° South 367 422 24,000  Level Atlanta Center
07:29AM 35.2625 -85.8550 173° South 367 422 24,000  Level Atlanta Center
07:30AM 35.1542 -85.8450 176° South 362 417 24,000  Level Atlanta Center
07:31AM 35.0564 -85.8200 168° South 362 417 24,000  Level Atlanta Center
07:32AM 34.9678 -85.7497 147° Southeast 367 422 24,000  Level Atlanta Center
07:33AM 34.8789 -85.6794 147° Southeast 373 429 24,000  Level Atlanta Center
07:34AM 34.7881 -85.6094 148° Southeast 378 435 24,000 -300 Level Atlanta Center
07:35AM 34.6992 -85.5394 147° Southeast 383 441 23,500 -600 Descending Atlanta Center
07:36AM 34.6083 -85.4672 147° Southeast 383 441 22,800 -780 Descending Atlanta Center
07:37AM 34.5194 -85.3978 147° Southeast 383 441 22,000 -780 Descending Atlanta Center
07:38AM 34.4283 -85.3281 148° Southeast 383 441 21,300 -1,500 Descending Atlanta Center
07:39AM 34.3392 -85.2564 146° Southeast 383 441 19,000 -2,040 Descending Atlanta Center
07:40AM 34.2478 -85.2097 157° South 366 421 17,300 -1,620 Descending Atlanta Center
07:41AM 34.1839 -85.1361 136° Southeast 352 405 15,800 -2,100 Descending Atlanta Center
07:42AM 34.1136 -85.0525 135° Southeast 357 411 13,200 -1,440 Descending Atlanta Center
07:43AM 34.0475 -84.9714 135° Southeast 344 396 13,000 -840 Descending Atlanta Center
07:44AM 33.9683 -84.9331 158° South 322 371 11,600 -1,680 Descending Atlanta Center
07:45AM 33.8933 -84.9172 170° South 281 323 9,700 -1,320 Descending Atlanta Center
07:46AM 33.8244 -84.9164 179° South 264 304 9,000 -360 Descending Atlanta Center
07:47AM 33.7681 -84.9158 180° South 220 253 9,000 -360 Level Atlanta Center
07:48AM 33.7203 -84.8981 163° South 187 215 8,300 -1,020 Descending Atlanta Center
07:49AM 33.6619 -84.8725 160° South 208 239 7,000 -900 Descending Atlanta Center
07:49AM 33.6333 -84.8500 147° Southeast 195 224 7,000 -300 Level Atlanta TRACON
07:50AM 33.6333 -84.7833 90° East 217 250 6,600 -900 Descending Atlanta TRACON
07:51AM 33.6333 -84.7167 90° East 214 246 5,300 -1,260 Descending Atlanta TRACON
07:52AM 33.6333 -84.6333 90° East 205 236 4,000 -1,080 Descending Atlanta TRACON
07:53AM 33.6333 -84.5833 90° East 194 223 3,200 -960 Descending Atlanta TRACON
07:54AM 33.6333 -84.5167 90° East 161 185 2,200 -840 Descending Atlanta TRACON
07:55AM 33.6333 -84.4833 90° East 123 142 1,600 -600 Descending Atlanta TRACON
07:57AM 33.6367 -84.4279 North  Level Estimated
08:04AM 33.6367 -84.4279 North  Level Estimated